Collins, NY (14034)

3:23 AM EDT on April 02, 2015 (GMT -0400)
Top of Zoar Valley | | Change Station
CLOSE
Current Station
Personal Weather Station
Location: Springville, NY
Elevation: 1427 ft
Nearby Weather Stations

Elev 1427 ft 42.50 °N, 78.78 °W | Updated 28 minutes ago

Partly Cloudy
Partly Cloudy
36.1 °F
Feels Like 36 °F
N
1.6
Wind Variable Wind from SE
Gusts 5.4 mph

Today
High -- | Low -- °F
--% Chance of Precip.
Yesterday
High -- | Low -- °F
Precip. -- in
6:56 AM 7:42 PM
Waxing Gibbous, 96% visible
Pressure 30.07 in
Visibility 10.0 miles
Clouds Scattered Clouds 10000 ft
Windchill 36 °F
Dew Point 36 °F
Humidity 99%
Rainfall 0.00 in
Snow Depth Not available.
UV 0 out of 12
Pollen 1.90 out of 12
Air Quality Not available.
Flu Activity Not available.
METAR KDKK 020653Z AUTO 21012KT 10SM SCT100 08/M01 A3005 RMK AO2 SLP181 T00831011

More Conditions Fewer Conditions

Pressure 30.07 in
Visibility 10.0 miles
Clouds Scattered Clouds 10000 ft
Windchill 36 °F
Dew Point 36 °F
Humidity 99%
Rainfall 0.00 in
Snow Depth Not available.
UV 0 out of 12
Pollen 1.90 out of 12
Air Quality Not available.
Flu Activity Not available.
METAR KDKK 020653Z AUTO 21012KT 10SM SCT100 08/M01 A3005 RMK AO2 SLP181 T00831011

More Conditions Fewer Conditions

10-Day Weather Forecast

Almanac

Astronomy

Apr. 02, 2015 Rise Set
Actual Time
Civil Twilight
Nautical Twilight
Astronomical Twilight
Moon
Length of Visible Light
Length of Day
Tomorrow will be .
, % of the Moon is Illuminated

Today's Extremes

State Highs State Lows

Community

WunderPhotos

Upload Photos

1,810,204 photos uploaded!

WunderBlogs® & News

Nearby

Air Quality

  Air Quality AQ Index Pollutant
Not available.

Snow Depth

Station Depth Elevation

Earthquake Activity

City Distance Mag. Time & Date
Minimum magnitude displayed is 2.5.

Coastal Water Temperatures

Place Temperature

Stations

Nearby Weather Stations

Station Location Temp. Windchill Dew Point Humidity Wind Precip. Elev Updated Type